ADDS METAR Data INFO
IDs: Format: Raw Decoded Include TAF

Data at: 0754 UTC 17 Oct 2017

KJHW 170656Z AUTO 18004KT 9SM CLR 00/M01 A3027 RMK AO2 SLP270 T00001006 FZRANO
KJHW 170556Z AUTO 18004KT 10SM CLR 01/01 A3027 RMK AO2 SLP267 T00110006 10056 20011 53001 FZRANO
KJHW 170456Z AUTO 19004KT 10SM CLR 01/00 A3026 RMK AO2 SLP265 T00110000 FZRANO
KJHW 170356Z AUTO 22003KT 10SM CLR 02/M01 A3027 RMK AO2 SLP267 T00221011 400890022 FZRANO
KJHW 170256Z AUTO 17003KT 10SM CLR 03/M01 A3026 RMK AO2 SLP265 T00281006 50005
KJHW 170156Z AUTO 00000KT 10SM CLR 04/M01 A3027 RMK AO2 SLP265 T00441006
KJHW 170056Z AUTO 00000KT 10SM CLR 05/M01 A3025 RMK AO2 SLP261 T00501006
KJHW 162356Z AUTO 33006KT 10SM CLR 05/00 A3025 RMK AO2 SLP259 6//// T00500000 10083 20050 51007
KJHW 162256Z AUTO 31003KT 10SM FEW036 SCT042 06/01 A3024 RMK AO2 SLP256 T00610011
KJHW 162156Z AUTO 31007KT 10SM FEW036 07/01 A3023 RMK AO2 SLP253 T00720006
KJHW 162056Z AUTO 33010G16KT 10SM BKN035 07/M01 A3022 RMK AO2 SLP248 T00721006 53008
KJHW 161956Z AUTO 33012G18KT 10SM SCT033 08/00 A3021 RMK AO2 SLP243 T00780000
KJHW 161856Z AUTO 31011KT 10SM FEW034 07/01 A3020 RMK AO2 SLP242 T00720006
KJHW 161756Z AUTO 28014G20KT 10SM BKN030 BKN035 08/01 A3020 RMK AO2 SLP240 T00780006 10078 20050 57003
KJHW 161753Z AUTO 29013G20KT 10SM BKN030 BKN035 08/01 A3020 RMK AO2
KJHW 161738Z AUTO 31015G19KT 10SM BKN028 07/00 A3020 RMK AO2
KJHW 161656Z AUTO 31015G22KT 10SM BKN032 07/M01 A3021 RMK AO2 SLP241 T00721006
KJHW 161556Z AUTO 31007KT 10SM SCT028 BKN036 07/01 A3021 RMK AO2 SLP242 T00670006
KJHW 161543Z AUTO 32012G19KT 10SM BKN028 OVC036 07/01 A3021 RMK AO2
KJHW 161532Z AUTO 30011KT 10SM BKN030 OVC036 07/02 A3020 RMK AO2
KJHW 161456Z AUTO 32011KT 10SM BKN028 OVC034 07/01 A3020 RMK AO2 SLP238 T00670006 51019
KJHW 161408Z AUTO 32011KT 10SM BKN023 OVC034 07/02 A3018 RMK AO2
KJHW 161356Z AUTO 33012KT 10SM SCT025 OVC036 07/02 A3018 RMK AO2 SLP231 T00670017
KJHW 161256Z AUTO 32009KT 10SM BKN034 07/02 A3016 RMK AO2 SLP223 T00670017
KJHW 161156Z AUTO 32008KT 10SM CLR 05/02 A3014 RMK AO2 SLP216 60000 70027 T00500022 10067 20050 53009
KJHW 161117Z AUTO 32008KT 10SM FEW022 05/03 A3013 RMK AO2
KJHW 161056Z AUTO 33007KT 10SM FEW015 BKN021 OVC036 06/03 A3012 RMK AO2 RAB14E31 SLP209 P0000 T00610033
KJHW 161054Z AUTO 33008KT 10SM BKN021 BKN030 OVC043 06/03 A3012 RMK AO2 RAB14E31 P0000
KJHW 161020Z AUTO 34008KT 10SM -RA FEW024 OVC033 06/03 A3012 RMK AO2 RAB14 P0000
KJHW 160956Z AUTO 32008KT 10SM OVC024 06/03 A3011 RMK AO2 RAB32E55 SLP204 P0000 T00610028
KJHW 160856Z AUTO 33007KT 10SM OVC028 07/03 A3009 RMK AO2 SLP195 T00670033 53013
KJHW 160756Z AUTO 34005KT 10SM FEW018 SCT023 OVC029 07/04 A3007 RMK AO2 SLP185 T00670039
KJHW 160656Z AUTO 33008KT 10SM BKN020 OVC029 07/03 A3006 RMK AO2 SLP183 T00670033
KJHW 160556Z AUTO 35011G17KT 10SM OVC015 07/04 A3005 RMK AO2 RAB17E53 SLP179 P0001 60001 T00670044 10139 20067 53025
KJHW 160456Z AUTO 32012G18KT 280V340 10SM OVC021 08/04 A3002 RMK AO2 SLP168 T00780039
KJHW 160356Z AUTO 32013KT 10SM OVC018 09/05 A3000 RMK AO2 SLP161 T00890050 402330089
KJHW 160256Z AUTO 33012G18KT 10SM OVC016 09/07 A2997 RMK AO2 RAB11E30 SLP152 P0000 60000 T00940067 53033
KJHW 160238Z AUTO 32013G17KT 10SM BKN016 OVC021 10/07 A2997 RMK AO2 RAB11E30 P0000
KJHW 160156Z AUTO 32018G26KT 10SM OVC013 11/08 A2994 RMK AO2 PK WND 32026/0147 SLP140 T01060083
KJHW 160138Z AUTO 32017G22KT 10SM OVC013 12/09 A2993 RMK AO2
KJHW 160056Z AUTO 31015G21KT 10SM BKN021 OVC034 13/09 A2990 RMK AO2 PK WND 31029/0042 RAB37E50 SLP125 P0000 T01280094
KJHW 152356Z AUTO 27016G23KT 10SM BKN021 OVC046 14/11 A2987 RMK AO2 SLP116 60026 T01390106 10233 20139 51035
KJHW 152325Z AUTO 28012G23KT 10SM FEW014 BKN025 OVC038 14/11 A2986 RMK AO2
KJHW 152256Z AUTO 28014G23KT 10SM BKN012 OVC017 14/12 A2985 RMK AO2 PK WND 28030/2218 RAB03E19B41E56 SLP107 P0000 T01390122
KJHW 152156Z AUTO 27019G28KT 10SM BKN014 OVC031 15/13 A2981 RMK AO2 PK WND 30036/2116 RAE28 SLP094 P0000 T01500133
KJHW 152142Z AUTO 27017G25KT 9SM BKN016 BKN020 OVC028 16/13 A2980 RMK AO2 PK WND 30036/2116 RAE28 P0000
KJHW 152044Z AUTO 27016G30KT 5SM -RA BR SCT010 BKN014 OVC034 18/17 A2974 RMK AO2 PK WND 26038/2031 WSHFT 2014 RAB15 P0026
KJHW 152032Z AUTO 26028G38KT 2SM +RA BR FEW008 BKN017 OVC042 18/17 A2974 RMK AO2 PK WND 26038/2031 WSHFT 2014 RAB15 CIG 011V022 P0022
KJHW 152029Z AUTO 27027G38KT 2 1/2SM +RA BR FEW010 BKN034 OVC042 18/17 A2973 RMK AO2 PK WND 27038/2029 WSHFT 2014 RAB15 P0017
KJHW 151956Z AUTO 22016G30KT 10SM BKN036 OVC045 23/16 A2972 RMK AO2 PK WND 21031/1907 SLP060 T02280161